sensor_id;sensor_type;location;lat;lon;timestamp;temperature;humidity
74869;DHT22;63419;42.262;12.210;2023-03-23T00:00:14;9.40;99.90
74869;DHT22;63419;42.262;12.210;2023-03-23T00:02:55;9.40;99.90
74869;DHT22;63419;42.262;12.210;2023-03-23T00:05:20;9.30;99.90
74869;DHT22;63419;42.262;12.210;2023-03-23T00:07:46;9.30;99.90
74869;DHT22;63419;42.262;12.210;2023-03-23T00:10:17;9.40;99.90
74869;DHT22;63419;42.262;12.210;2023-03-23T00:12:43;9.40;99.90
74869;DHT22;63419;42.262;12.210;2023-03-23T00:15:10;9.30;99.90
74869;DHT22;63419;42.262;12.210;2023-03-23T00:17:39;9.40;99.90
74869;DHT22;63419;42.262;12.210;2023-03-23T00:20:07;9.40;99.90
74869;DHT22;63419;42.262;12.210;2023-03-23T00:22:34;9.50;99.90
74869;DHT22;63419;42.262;12.210;2023-03-23T00:25:07;9.50;99.90
74869;DHT22;63419;42.262;12.210;2023-03-23T00:27:34;9.50;99.90
74869;DHT22;63419;42.262;12.210;2023-03-23T00:30:00;9.60;99.90
74869;DHT22;63419;42.262;12.210;2023-03-23T00:32:27;9.60;99.90
74869;DHT22;63419;42.262;12.210;2023-03-23T00:34:56;9.70;99.90
74869;DHT22;63419;42.262;12.210;2023-03-23T00:37:27;9.90;99.90
74869;DHT22;63419;42.262;12.210;2023-03-23T00:39:53;9.90;99.90
74869;DHT22;63419;42.262;12.210;2023-03-23T00:42:23;9.90;99.90
74869;DHT22;63419;42.262;12.210;2023-03-23T00:44:50;9.80;99.90
74869;DHT22;63419;42.262;12.210;2023-03-23T00:47:21;9.70;99.90
74869;DHT22;63419;42.262;12.210;2023-03-23T00:49:52;9.70;99.90
74869;DHT22;63419;42.262;12.210;2023-03-23T00:52:18;9.60;99.90
74869;DHT22;63419;42.262;12.210;2023-03-23T00:54:46;9.60;99.90
74869;DHT22;63419;42.262;12.210;2023-03-23T00:57:13;9.60;99.90
74869;DHT22;63419;42.262;12.210;2023-03-23T00:59:39;9.70;99.90
74869;DHT22;63419;42.262;12.210;2023-03-23T01:02:05;9.70;99.90
74869;DHT22;63419;42.262;12.210;2023-03-23T01:04:31;9.70;99.90
74869;DHT22;63419;42.262;12.210;2023-03-23T01:06:57;9.60;99.90
74869;DHT22;63419;42.262;12.210;2023-03-23T01:09:26;9.60;99.90
74869;DHT22;63419;42.262;12.210;2023-03-23T01:11:53;9.60;99.90
74869;DHT22;63419;42.262;12.210;2023-03-23T01:14:21;9.50;99.90
74869;DHT22;63419;42.262;12.210;2023-03-23T01:16:47;9.50;99.90
74869;DHT22;63419;42.262;12.210;2023-03-23T01:19:14;9.50;99.90
74869;DHT22;63419;42.262;12.210;2023-03-23T01:21:41;9.50;99.90
74869;DHT22;63419;42.262;12.210;2023-03-23T01:24:07;9.50;99.90
74869;DHT22;63419;42.262;12.210;2023-03-23T01:26:33;9.40;99.90
74869;DHT22;63419;42.262;12.210;2023-03-23T01:29:00;9.30;99.90
74869;DHT22;63419;42.262;12.210;2023-03-23T01:31:26;9.40;99.90
74869;DHT22;63419;42.262;12.210;2023-03-23T01:33:52;9.50;99.90
74869;DHT22;63419;42.262;12.210;2023-03-23T01:36:27;9.40;99.90
74869;DHT22;63419;42.262;12.210;2023-03-23T01:38:59;9.40;99.90
74869;DHT22;63419;42.262;12.210;2023-03-23T01:41:31;9.40;99.90
74869;DHT22;63419;42.262;12.210;2023-03-23T01:46:55;9.30;99.90
74869;DHT22;63419;42.262;12.210;2023-03-23T01:49:24;9.30;99.90
74869;DHT22;63419;42.262;12.210;2023-03-23T01:51:58;9.30;99.90
74869;DHT22;63419;42.262;12.210;2023-03-23T01:54:29;9.30;99.90
74869;DHT22;63419;42.262;12.210;2023-03-23T01:57:17;9.30;99.90
74869;DHT22;63419;42.262;12.210;2023-03-23T01:59:49;9.30;99.90
74869;DHT22;63419;42.262;12.210;2023-03-23T02:02:20;9.20;99.90
74869;DHT22;63419;42.262;12.210;2023-03-23T02:04:48;9.20;99.90
74869;DHT22;63419;42.262;12.210;2023-03-23T02:07:18;9.20;99.90
74869;DHT22;63419;42.262;12.210;2023-03-23T02:09:47;9.30;99.90
74869;DHT22;63419;42.262;12.210;2023-03-23T02:12:15;9.20;99.90
74869;DHT22;63419;42.262;12.210;2023-03-23T02:14:41;9.10;99.90
74869;DHT22;63419;42.262;12.210;2023-03-23T02:17:27;8.90;99.90
74869;DHT22;63419;42.262;12.210;2023-03-23T02:20:23;8.90;99.90
74869;DHT22;63419;42.262;12.210;2023-03-23T02:27:12;8.80;99.90
74869;DHT22;63419;42.262;12.210;2023-03-23T02:32:12;8.80;99.90
74869;DHT22;63419;42.262;12.210;2023-03-23T02:34:58;8.70;99.90
74869;DHT22;63419;42.262;12.210;2023-03-23T02:37:37;8.80;99.90
74869;DHT22;63419;42.262;12.210;2023-03-23T02:40:30;8.70;99.90
74869;DHT22;63419;42.262;12.210;2023-03-23T02:43:02;8.70;99.90
74869;DHT22;63419;42.262;12.210;2023-03-23T02:45:33;8.70;99.90
74869;DHT22;63419;42.262;12.210;2023-03-23T02:48:03;8.70;99.90
74869;DHT22;63419;42.262;12.210;2023-03-23T02:50:32;8.80;99.90
74869;DHT22;63419;42.262;12.210;2023-03-23T02:53:01;8.90;99.90
74869;DHT22;63419;42.262;12.210;2023-03-23T02:55:32;8.90;99.90
74869;DHT22;63419;42.262;12.210;2023-03-23T02:58:00;8.90;99.90
74869;DHT22;63419;42.262;12.210;2023-03-23T03:00:28;9.00;99.90
74869;DHT22;63419;42.262;12.210;2023-03-23T03:02:55;9.10;99.90
74869;DHT22;63419;42.262;12.210;2023-03-23T03:11:21;9.10;99.90
74869;DHT22;63419;42.262;12.210;2023-03-23T03:14:04;9.10;99.90
74869;DHT22;63419;42.262;12.210;2023-03-23T03:19:28;9.20;99.90
74869;DHT22;63419;42.262;12.210;2023-03-23T03:21:58;9.20;99.90
74869;DHT22;63419;42.262;12.210;2023-03-23T03:24:28;9.20;99.90
74869;DHT22;63419;42.262;12.210;2023-03-23T03:26:58;9.20;99.90
74869;DHT22;63419;42.262;12.210;2023-03-23T03:29:34;9.20;99.90
74869;DHT22;63419;42.262;12.210;2023-03-23T03:32:04;9.10;99.90
74869;DHT22;63419;42.262;12.210;2023-03-23T03:34:50;9.20;99.90
74869;DHT22;63419;42.262;12.210;2023-03-23T03:37:18;9.20;99.90
74869;DHT22;63419;42.262;12.210;2023-03-23T03:39:46;9.20;99.90
74869;DHT22;63419;42.262;12.210;2023-03-23T03:42:12;9.20;99.90
74869;DHT22;63419;42.262;12.210;2023-03-23T03:44:38;9.30;99.90
74869;DHT22;63419;42.262;12.210;2023-03-23T03:47:10;9.40;99.90
74869;DHT22;63419;42.262;12.210;2023-03-23T03:49:36;9.40;99.90
74869;DHT22;63419;42.262;12.210;2023-03-23T03:52:02;9.30;99.90
74869;DHT22;63419;42.262;12.210;2023-03-23T03:54:28;9.30;99.90
74869;DHT22;63419;42.262;12.210;2023-03-23T03:56:54;9.30;99.90
74869;DHT22;63419;42.262;12.210;2023-03-23T03:59:23;9.30;99.90
74869;DHT22;63419;42.262;12.210;2023-03-23T04:01:51;9.40;99.90
74869;DHT22;63419;42.262;12.210;2023-03-23T04:04:21;9.30;99.90
74869;DHT22;63419;42.262;12.210;2023-03-23T04:06:48;9.30;99.90
74869;DHT22;63419;42.262;12.210;2023-03-23T04:09:14;9.30;99.90
74869;DHT22;63419;42.262;12.210;2023-03-23T04:11:42;9.40;99.90
74869;DHT22;63419;42.262;12.210;2023-03-23T04:14:10;9.40;99.90
74869;DHT22;63419;42.262;12.210;2023-03-23T04:16:41;9.50;99.90
74869;DHT22;63419;42.262;12.210;2023-03-23T04:19:09;9.50;99.90
74869;DHT22;63419;42.262;12.210;2023-03-23T04:21:35;9.50;99.90
74869;DHT22;63419;42.262;12.210;2023-03-23T04:24:01;9.50;99.90
74869;DHT22;63419;42.262;12.210;2023-03-23T04:26:28;9.40;99.90
74869;DHT22;63419;42.262;12.210;2023-03-23T04:28:56;9.40;99.90
74869;DHT22;63419;42.262;12.210;2023-03-23T04:31:24;9.50;99.90
74869;DHT22;63419;42.262;12.210;2023-03-23T04:33:51;9.50;99.90
74869;DHT22;63419;42.262;12.210;2023-03-23T04:36:18;9.50;99.90
74869;DHT22;63419;42.262;12.210;2023-03-23T04:38:44;9.40;99.90
74869;DHT22;63419;42.262;12.210;2023-03-23T04:41:11;9.30;99.90
74869;DHT22;63419;42.262;12.210;2023-03-23T04:43:38;9.40;99.90
74869;DHT22;63419;42.262;12.210;2023-03-23T04:46:08;9.40;99.90
74869;DHT22;63419;42.262;12.210;2023-03-23T04:48:35;9.40;99.90
74869;DHT22;63419;42.262;12.210;2023-03-23T04:51:03;9.50;99.90
74869;DHT22;63419;42.262;12.210;2023-03-23T04:53:30;9.50;99.90
74869;DHT22;63419;42.262;12.210;2023-03-23T04:55:57;9.50;99.90
74869;DHT22;63419;42.262;12.210;2023-03-23T04:58:23;9.50;99.90
74869;DHT22;63419;42.262;12.210;2023-03-23T05:00:50;9.60;99.90
74869;DHT22;63419;42.262;12.210;2023-03-23T05:03:17;9.70;99.90
74869;DHT22;63419;42.262;12.210;2023-03-23T05:05:44;9.70;99.90
74869;DHT22;63419;42.262;12.210;2023-03-23T05:08:24;9.50;99.90
74869;DHT22;63419;42.262;12.210;2023-03-23T05:10:52;9.60;99.90
74869;DHT22;63419;42.262;12.210;2023-03-23T05:13:19;9.60;99.90
74869;DHT22;63419;42.262;12.210;2023-03-23T05:15:46;9.60;99.90
74869;DHT22;63419;42.262;12.210;2023-03-23T05:18:13;9.60;99.90
74869;DHT22;63419;42.262;12.210;2023-03-23T05:20:40;9.60;99.90
74869;DHT22;63419;42.262;12.210;2023-03-23T05:23:09;9.50;99.90
74869;DHT22;63419;42.262;12.210;2023-03-23T05:25:36;9.60;99.90
74869;DHT22;63419;42.262;12.210;2023-03-23T05:28:14;9.60;99.90
74869;DHT22;63419;42.262;12.210;2023-03-23T05:30:40;9.50;99.90
74869;DHT22;63419;42.262;12.210;2023-03-23T05:33:11;9.70;99.90
74869;DHT22;63419;42.262;12.210;2023-03-23T05:35:37;9.70;99.90
74869;DHT22;63419;42.262;12.210;2023-03-23T05:38:03;9.80;99.90
74869;DHT22;63419;42.262;12.210;2023-03-23T05:40:30;9.80;99.90
74869;DHT22;63419;42.262;12.210;2023-03-23T05:42:56;9.90;99.90
74869;DHT22;63419;42.262;12.210;2023-03-23T05:45:25;9.90;99.90
74869;DHT22;63419;42.262;12.210;2023-03-23T05:47:52;9.90;99.90
74869;DHT22;63419;42.262;12.210;2023-03-23T05:50:18;10.00;99.90
74869;DHT22;63419;42.262;12.210;2023-03-23T05:52:45;10.00;99.90
74869;DHT22;63419;42.262;12.210;2023-03-23T05:55:11;10.10;99.90
74869;DHT22;63419;42.262;12.210;2023-03-23T05:57:38;10.10;99.90
74869;DHT22;63419;42.262;12.210;2023-03-23T06:00:06;10.20;99.90
74869;DHT22;63419;42.262;12.210;2023-03-23T06:02:40;10.20;99.90
74869;DHT22;63419;42.262;12.210;2023-03-23T06:05:10;10.30;99.90
74869;DHT22;63419;42.262;12.210;2023-03-23T06:07:37;10.40;99.90
74869;DHT22;63419;42.262;12.210;2023-03-23T06:10:07;10.50;99.90
74869;DHT22;63419;42.262;12.210;2023-03-23T06:12:39;10.60;99.90
74869;DHT22;63419;42.262;12.210;2023-03-23T06:15:07;10.70;99.90
74869;DHT22;63419;42.262;12.210;2023-03-23T06:17:35;10.80;99.90
74869;DHT22;63419;42.262;12.210;2023-03-23T06:20:03;10.90;99.90
74869;DHT22;63419;42.262;12.210;2023-03-23T06:22:39;11.00;99.90
74869;DHT22;63419;42.262;12.210;2023-03-23T06:25:06;11.10;99.90
74869;DHT22;63419;42.262;12.210;2023-03-23T06:27:35;11.20;99.90
74869;DHT22;63419;42.262;12.210;2023-03-23T06:30:02;11.30;99.90
74869;DHT22;63419;42.262;12.210;2023-03-23T06:32:31;11.40;99.90
74869;DHT22;63419;42.262;12.210;2023-03-23T06:34:58;11.60;99.90
74869;DHT22;63419;42.262;12.210;2023-03-23T06:37:25;11.60;99.90
74869;DHT22;63419;42.262;12.210;2023-03-23T06:39:51;11.70;99.90
74869;DHT22;63419;42.262;12.210;2023-03-23T06:42:17;11.70;99.90
74869;DHT22;63419;42.262;12.210;2023-03-23T06:44:43;11.80;99.90
74869;DHT22;63419;42.262;12.210;2023-03-23T06:47:10;11.90;99.90
74869;DHT22;63419;42.262;12.210;2023-03-23T06:49:36;11.90;99.90
74869;DHT22;63419;42.262;12.210;2023-03-23T06:52:02;11.90;99.90
74869;DHT22;63419;42.262;12.210;2023-03-23T06:54:30;12.00;99.90
74869;DHT22;63419;42.262;12.210;2023-03-23T06:56:58;12.10;99.90
74869;DHT22;63419;42.262;12.210;2023-03-23T06:59:25;12.20;99.90
74869;DHT22;63419;42.262;12.210;2023-03-23T07:01:52;12.30;99.90
74869;DHT22;63419;42.262;12.210;2023-03-23T07:04:18;12.20;99.90
74869;DHT22;63419;42.262;12.210;2023-03-23T07:06:46;12.20;99.90
74869;DHT22;63419;42.262;12.210;2023-03-23T07:09:17;12.20;99.90
74869;DHT22;63419;42.262;12.210;2023-03-23T07:11:52;12.30;99.90
74869;DHT22;63419;42.262;12.210;2023-03-23T07:14:22;12.30;99.90
74869;DHT22;63419;42.262;12.210;2023-03-23T07:16:55;12.40;99.90
74869;DHT22;63419;42.262;12.210;2023-03-23T07:19:23;12.50;99.90
74869;DHT22;63419;42.262;12.210;2023-03-23T07:21:49;12.50;99.90
74869;DHT22;63419;42.262;12.210;2023-03-23T07:24:18;12.40;99.90
74869;DHT22;63419;42.262;12.210;2023-03-23T07:26:50;12.40;99.90
74869;DHT22;63419;42.262;12.210;2023-03-23T07:29:21;12.50;99.90
74869;DHT22;63419;42.262;12.210;2023-03-23T07:31:49;12.60;99.90
74869;DHT22;63419;42.262;12.210;2023-03-23T07:34:20;12.70;99.90
74869;DHT22;63419;42.262;12.210;2023-03-23T07:36:49;12.80;99.90
74869;DHT22;63419;42.262;12.210;2023-03-23T07:39:17;12.80;99.90
74869;DHT22;63419;42.262;12.210;2023-03-23T07:41:46;12.90;99.90
74869;DHT22;63419;42.262;12.210;2023-03-23T07:44:13;13.10;99.90
74869;DHT22;63419;42.262;12.210;2023-03-23T07:46:40;13.20;99.90
74869;DHT22;63419;42.262;12.210;2023-03-23T07:49:08;13.20;99.90
74869;DHT22;63419;42.262;12.210;2023-03-23T07:51:34;13.30;99.90
74869;DHT22;63419;42.262;12.210;2023-03-23T07:54:01;13.50;99.90
74869;DHT22;63419;42.262;12.210;2023-03-23T07:56:28;13.60;99.90
74869;DHT22;63419;42.262;12.210;2023-03-23T07:58:54;13.80;99.90
74869;DHT22;63419;42.262;12.210;2023-03-23T08:01:20;13.90;99.90
74869;DHT22;63419;42.262;12.210;2023-03-23T08:03:47;14.10;99.90
74869;DHT22;63419;42.262;12.210;2023-03-23T08:06:13;14.20;99.90
74869;DHT22;63419;42.262;12.210;2023-03-23T08:08:41;14.20;99.90
74869;DHT22;63419;42.262;12.210;2023-03-23T08:11:07;14.40;99.90
74869;DHT22;63419;42.262;12.210;2023-03-23T08:13:33;14.60;99.90
74869;DHT22;63419;42.262;12.210;2023-03-23T08:16:00;14.70;99.90
74869;DHT22;63419;42.262;12.210;2023-03-23T08:18:30;14.70;99.90
74869;DHT22;63419;42.262;12.210;2023-03-23T08:20:57;14.90;99.90
74869;DHT22;63419;42.262;12.210;2023-03-23T08:23:23;15.10;99.90
74869;DHT22;63419;42.262;12.210;2023-03-23T08:25:50;15.10;99.90
74869;DHT22;63419;42.262;12.210;2023-03-23T08:28:15;15.50;99.90
74869;DHT22;63419;42.262;12.210;2023-03-23T08:30:44;15.80;99.90
74869;DHT22;63419;42.262;12.210;2023-03-23T08:33:15;16.00;99.90
74869;DHT22;63419;42.262;12.210;2023-03-23T08:35:42;16.20;99.90
74869;DHT22;63419;42.262;12.210;2023-03-23T08:38:12;16.10;99.90
74869;DHT22;63419;42.262;12.210;2023-03-23T08:40:39;16.10;99.90
74869;DHT22;63419;42.262;12.210;2023-03-23T08:43:14;16.00;99.90
74869;DHT22;63419;42.262;12.210;2023-03-23T08:45:40;16.10;99.90
74869;DHT22;63419;42.262;12.210;2023-03-23T08:48:07;16.30;99.90
74869;DHT22;63419;42.262;12.210;2023-03-23T08:50:33;16.10;99.90
74869;DHT22;63419;42.262;12.210;2023-03-23T08:53:01;16.00;99.90
74869;DHT22;63419;42.262;12.210;2023-03-23T08:55:28;15.90;99.90
74869;DHT22;63419;42.262;12.210;2023-03-23T08:57:55;16.40;99.90
74869;DHT22;63419;42.262;12.210;2023-03-23T09:00:22;16.40;99.90
74869;DHT22;63419;42.262;12.210;2023-03-23T09:02:52;16.30;99.90
74869;DHT22;63419;42.262;12.210;2023-03-23T09:05:21;16.70;99.90
74869;DHT22;63419;42.262;12.210;2023-03-23T09:07:51;16.80;99.90
74869;DHT22;63419;42.262;12.210;2023-03-23T09:10:19;17.10;99.90
74869;DHT22;63419;42.262;12.210;2023-03-23T09:12:46;17.20;99.90
74869;DHT22;63419;42.262;12.210;2023-03-23T09:15:13;17.40;99.90
74869;DHT22;63419;42.262;12.210;2023-03-23T09:17:46;17.70;99.90
74869;DHT22;63419;42.262;12.210;2023-03-23T09:20:22;17.80;99.90
74869;DHT22;63419;42.262;12.210;2023-03-23T09:22:54;18.10;99.90
74869;DHT22;63419;42.262;12.210;2023-03-23T09:25:34;18.20;99.90
74869;DHT22;63419;42.262;12.210;2023-03-23T09:28:03;18.20;99.90
74869;DHT22;63419;42.262;12.210;2023-03-23T09:30:34;18.40;99.90
74869;DHT22;63419;42.262;12.210;2023-03-23T09:33:07;18.40;99.90
74869;DHT22;63419;42.262;12.210;2023-03-23T09:35:33;18.70;99.90
74869;DHT22;63419;42.262;12.210;2023-03-23T09:38:02;18.70;99.90
74869;DHT22;63419;42.262;12.210;2023-03-23T09:51:19;19.40;99.90
74869;DHT22;63419;42.262;12.210;2023-03-23T09:53:52;19.30;99.90
74869;DHT22;63419;42.262;12.210;2023-03-23T09:56:22;19.30;99.90
74869;DHT22;63419;42.262;12.210;2023-03-23T10:02:18;19.70;99.90
74869;DHT22;63419;42.262;12.210;2023-03-23T10:04:54;20.00;99.90
74869;DHT22;63419;42.262;12.210;2023-03-23T10:07:25;20.20;99.90
74869;DHT22;63419;42.262;12.210;2023-03-23T10:09:57;20.20;99.90
74869;DHT22;63419;42.262;12.210;2023-03-23T10:12:52;20.10;99.90
74869;DHT22;63419;42.262;12.210;2023-03-23T10:15:36;20.10;99.90
74869;DHT22;63419;42.262;12.210;2023-03-23T10:18:25;20.30;99.90
74869;DHT22;63419;42.262;12.210;2023-03-23T10:21:17;20.70;99.90
74869;DHT22;63419;42.262;12.210;2023-03-23T10:24:03;20.80;99.90
74869;DHT22;63419;42.262;12.210;2023-03-23T10:27:02;21.10;99.90
74869;DHT22;63419;42.262;12.210;2023-03-23T10:32:44;21.60;99.90
74869;DHT22;63419;42.262;12.210;2023-03-23T10:35:50;21.10;99.90
74869;DHT22;63419;42.262;12.210;2023-03-23T10:38:36;21.20;99.90
74869;DHT22;63419;42.262;12.210;2023-03-23T10:41:15;20.90;99.90
74869;DHT22;63419;42.262;12.210;2023-03-23T10:43:44;21.50;99.90
74869;DHT22;63419;42.262;12.210;2023-03-23T10:46:29;21.40;99.50
74869;DHT22;63419;42.262;12.210;2023-03-23T10:49:10;21.50;99.70
74869;DHT22;63419;42.262;12.210;2023-03-23T10:51:59;21.80;99.00
74869;DHT22;63419;42.262;12.210;2023-03-23T10:54:46;22.30;99.40
74869;DHT22;63419;42.262;12.210;2023-03-23T10:57:31;22.00;98.50
74869;DHT22;63419;42.262;12.210;2023-03-23T11:06:24;22.90;97.70
74869;DHT22;63419;42.262;12.210;2023-03-23T11:09:15;23.00;97.50
74869;DHT22;63419;42.262;12.210;2023-03-23T11:11:54;22.90;96.60
74869;DHT22;63419;42.262;12.210;2023-03-23T11:14:29;21.20;98.00
74869;DHT22;63419;42.262;12.210;2023-03-23T11:17:03;21.30;97.60
74869;DHT22;63419;42.262;12.210;2023-03-23T11:19:34;22.50;96.30
74869;DHT22;63419;42.262;12.210;2023-03-23T11:22:18;23.00;96.70
74869;DHT22;63419;42.262;12.210;2023-03-23T11:24:47;24.00;95.60
74869;DHT22;63419;42.262;12.210;2023-03-23T11:27:18;24.90;96.10
74869;DHT22;63419;42.262;12.210;2023-03-23T11:29:51;23.80;95.30
74869;DHT22;63419;42.262;12.210;2023-03-23T11:32:24;24.70;95.40
74869;DHT22;63419;42.262;12.210;2023-03-23T11:35:05;24.70;94.60
74869;DHT22;63419;42.262;12.210;2023-03-23T11:37:42;23.40;94.90
74869;DHT22;63419;42.262;12.210;2023-03-23T11:40:29;23.60;95.40
74869;DHT22;63419;42.262;12.210;2023-03-23T11:42:59;23.70;93.80
74869;DHT22;63419;42.262;12.210;2023-03-23T11:51:08;22.60;94.20
74869;DHT22;63419;42.262;12.210;2023-03-23T11:53:50;21.80;98.30
74869;DHT22;63419;42.262;12.210;2023-03-23T11:56:34;23.10;95.70
74869;DHT22;63419;42.262;12.210;2023-03-23T11:59:02;22.10;93.60
74869;DHT22;63419;42.262;12.210;2023-03-23T12:30:42;21.10;94.60
74869;DHT22;63419;42.262;12.210;2023-03-23T12:39:29;21.90;93.40
74869;DHT22;63419;42.262;12.210;2023-03-23T12:42:20;20.00;97.40
74869;DHT22;63419;42.262;12.210;2023-03-23T12:48:05;21.90;95.80
74869;DHT22;63419;42.262;12.210;2023-03-23T12:56:26;21.10;95.10
74869;DHT22;63419;42.262;12.210;2023-03-23T13:01:54;22.70;94.30
74869;DHT22;63419;42.262;12.210;2023-03-23T13:04:34;20.10;96.60
74869;DHT22;63419;42.262;12.210;2023-03-23T13:07:09;21.20;96.20
74869;DHT22;63419;42.262;12.210;2023-03-23T13:12:38;21.50;96.00
74869;DHT22;63419;42.262;12.210;2023-03-23T13:15:27;20.80;96.10
74869;DHT22;63419;42.262;12.210;2023-03-23T13:24:19;20.00;98.80
74869;DHT22;63419;42.262;12.210;2023-03-23T13:26:50;20.40;99.70
74869;DHT22;63419;42.262;12.210;2023-03-23T13:29:21;20.40;97.90
74869;DHT22;63419;42.262;12.210;2023-03-23T13:32:06;20.50;97.90
74869;DHT22;63419;42.262;12.210;2023-03-23T13:34:43;19.90;98.60
74869;DHT22;63419;42.262;12.210;2023-03-23T13:37:26;19.70;97.30
74869;DHT22;63419;42.262;12.210;2023-03-23T13:40:14;20.20;98.60
74869;DHT22;63419;42.262;12.210;2023-03-23T13:42:52;20.80;96.40
74869;DHT22;63419;42.262;12.210;2023-03-23T13:48:24;20.30;99.90
74869;DHT22;63419;42.262;12.210;2023-03-23T13:53:47;19.70;99.90
74869;DHT22;63419;42.262;12.210;2023-03-23T13:58:51;19.90;99.90
74869;DHT22;63419;42.262;12.210;2023-03-23T14:01:37;20.10;99.90
74869;DHT22;63419;42.262;12.210;2023-03-23T14:04:17;19.10;99.90
74869;DHT22;63419;42.262;12.210;2023-03-23T14:06:49;18.90;99.90
74869;DHT22;63419;42.262;12.210;2023-03-23T14:11:50;19.20;99.90
74869;DHT22;63419;42.262;12.210;2023-03-23T14:14:28;18.90;99.90
74869;DHT22;63419;42.262;12.210;2023-03-23T14:19:39;18.80;99.90
74869;DHT22;63419;42.262;12.210;2023-03-23T14:22:27;18.60;99.90
74869;DHT22;63419;42.262;12.210;2023-03-23T14:25:18;19.30;99.90
74869;DHT22;63419;42.262;12.210;2023-03-23T14:27:51;19.50;99.90
74869;DHT22;63419;42.262;12.210;2023-03-23T14:30:24;19.20;99.90
74869;DHT22;63419;42.262;12.210;2023-03-23T14:33:04;18.70;99.90
74869;DHT22;63419;42.262;12.210;2023-03-23T14:35:36;19.20;99.90
74869;DHT22;63419;42.262;12.210;2023-03-23T14:38:18;18.40;99.90
74869;DHT22;63419;42.262;12.210;2023-03-23T14:40:49;18.70;99.90
74869;DHT22;63419;42.262;12.210;2023-03-23T14:43:19;18.70;99.90
74869;DHT22;63419;42.262;12.210;2023-03-23T14:45:53;18.50;99.90
74869;DHT22;63419;42.262;12.210;2023-03-23T14:48:23;18.30;99.90
74869;DHT22;63419;42.262;12.210;2023-03-23T14:50:59;18.70;99.90
74869;DHT22;63419;42.262;12.210;2023-03-23T14:53:32;19.10;99.90
74869;DHT22;63419;42.262;12.210;2023-03-23T14:56:09;19.60;99.90
74869;DHT22;63419;42.262;12.210;2023-03-23T14:58:43;19.80;99.90
74869;DHT22;63419;42.262;12.210;2023-03-23T15:01:23;19.20;99.90
74869;DHT22;63419;42.262;12.210;2023-03-23T15:04:12;19.10;99.90
74869;DHT22;63419;42.262;12.210;2023-03-23T15:06:50;19.50;99.90
74869;DHT22;63419;42.262;12.210;2023-03-23T15:09:23;18.70;99.90
74869;DHT22;63419;42.262;12.210;2023-03-23T15:12:03;18.10;99.90
74869;DHT22;63419;42.262;12.210;2023-03-23T15:14:34;18.20;99.90
74869;DHT22;63419;42.262;12.210;2023-03-23T15:17:29;18.20;99.90
74869;DHT22;63419;42.262;12.210;2023-03-23T15:20:17;18.60;99.90
74869;DHT22;63419;42.262;12.210;2023-03-23T15:22:49;18.20;99.90
74869;DHT22;63419;42.262;12.210;2023-03-23T15:25:30;19.00;99.90
74869;DHT22;63419;42.262;12.210;2023-03-23T15:28:14;18.80;99.90
74869;DHT22;63419;42.262;12.210;2023-03-23T15:30:52;19.00;99.90
74869;DHT22;63419;42.262;12.210;2023-03-23T15:33:24;18.70;99.90
74869;DHT22;63419;42.262;12.210;2023-03-23T15:35:56;18.50;99.90
74869;DHT22;63419;42.262;12.210;2023-03-23T15:38:30;19.00;99.90
74869;DHT22;63419;42.262;12.210;2023-03-23T15:41:04;18.40;99.90
74869;DHT22;63419;42.262;12.210;2023-03-23T15:43:52;18.40;99.90
74869;DHT22;63419;42.262;12.210;2023-03-23T15:46:24;18.50;99.90
74869;DHT22;63419;42.262;12.210;2023-03-23T15:51:26;18.10;99.90
74869;DHT22;63419;42.262;12.210;2023-03-23T15:53:55;18.70;99.90
74869;DHT22;63419;42.262;12.210;2023-03-23T15:56:23;19.20;99.90
74869;DHT22;63419;42.262;12.210;2023-03-23T15:58:53;19.10;99.90
74869;DHT22;63419;42.262;12.210;2023-03-23T16:01:28;18.50;99.90
74869;DHT22;63419;42.262;12.210;2023-03-23T16:04:18;18.50;99.90
74869;DHT22;63419;42.262;12.210;2023-03-23T16:06:46;17.50;99.90
74869;DHT22;63419;42.262;12.210;2023-03-23T16:09:19;17.80;99.90
74869;DHT22;63419;42.262;12.210;2023-03-23T16:12:12;17.10;99.90
74869;DHT22;63419;42.262;12.210;2023-03-23T16:14:45;18.00;99.90
74869;DHT22;63419;42.262;12.210;2023-03-23T16:17:18;17.30;99.90
74869;DHT22;63419;42.262;12.210;2023-03-23T16:19:46;17.20;99.90
74869;DHT22;63419;42.262;12.210;2023-03-23T16:22:13;17.00;99.90
74869;DHT22;63419;42.262;12.210;2023-03-23T16:24:43;16.80;99.90
74869;DHT22;63419;42.262;12.210;2023-03-23T16:27:12;16.60;99.90
74869;DHT22;63419;42.262;12.210;2023-03-23T16:29:40;16.90;99.90
74869;DHT22;63419;42.262;12.210;2023-03-23T16:32:27;16.60;99.90
74869;DHT22;63419;42.262;12.210;2023-03-23T16:35:03;16.70;99.90
74869;DHT22;63419;42.262;12.210;2023-03-23T16:37:32;16.60;99.90
74869;DHT22;63419;42.262;12.210;2023-03-23T16:40:02;16.30;99.90
74869;DHT22;63419;42.262;12.210;2023-03-23T16:42:33;16.10;99.90
74869;DHT22;63419;42.262;12.210;2023-03-23T16:45:02;16.10;99.90
74869;DHT22;63419;42.262;12.210;2023-03-23T16:47:29;16.00;99.90
74869;DHT22;63419;42.262;12.210;2023-03-23T16:50:03;16.00;99.90
74869;DHT22;63419;42.262;12.210;2023-03-23T16:52:45;16.10;99.90
74869;DHT22;63419;42.262;12.210;2023-03-23T16:55:16;15.60;99.90
74869;DHT22;63419;42.262;12.210;2023-03-23T16:57:44;15.40;99.90
74869;DHT22;63419;42.262;12.210;2023-03-23T17:00:21;15.20;99.90
74869;DHT22;63419;42.262;12.210;2023-03-23T17:02:54;15.00;99.90
74869;DHT22;63419;42.262;12.210;2023-03-23T17:05:27;14.80;99.90
74869;DHT22;63419;42.262;12.210;2023-03-23T17:07:55;14.70;99.90
74869;DHT22;63419;42.262;12.210;2023-03-23T17:10:25;14.50;99.90
74869;DHT22;63419;42.262;12.210;2023-03-23T17:12:55;14.40;99.90
74869;DHT22;63419;42.262;12.210;2023-03-23T17:15:26;14.50;99.90
74869;DHT22;63419;42.262;12.210;2023-03-23T17:17:56;14.30;99.90
74869;DHT22;63419;42.262;12.210;2023-03-23T17:20:23;14.20;99.90
74869;DHT22;63419;42.262;12.210;2023-03-23T17:22:51;14.00;99.90
74869;DHT22;63419;42.262;12.210;2023-03-23T17:25:18;14.00;99.90
74869;DHT22;63419;42.262;12.210;2023-03-23T17:27:46;13.80;99.90
74869;DHT22;63419;42.262;12.210;2023-03-23T17:30:13;13.80;99.90
74869;DHT22;63419;42.262;12.210;2023-03-23T17:32:40;13.50;99.90
74869;DHT22;63419;42.262;12.210;2023-03-23T17:35:07;13.50;99.90
74869;DHT22;63419;42.262;12.210;2023-03-23T17:37:35;13.50;99.90
74869;DHT22;63419;42.262;12.210;2023-03-23T17:40:04;13.30;99.90
74869;DHT22;63419;42.262;12.210;2023-03-23T17:42:39;13.20;99.90
74869;DHT22;63419;42.262;12.210;2023-03-23T17:45:08;13.00;99.90
74869;DHT22;63419;42.262;12.210;2023-03-23T17:47:36;13.00;99.90